Time;durP1;ratioP1;P1;durP2;ratioP2;P2;SDS_P1;SDS_P2;PMS_P1;PMS_P2;Temp;Humidity;BMP_temperature;BMP_pressure;BME280_temperature;BME280_humidity;BME280_pressure;Samples;Min_cycle;Max_cycle;Signal;HPM_P1;HPM_P2
2021/04/26 00:00:37;;;;;;;80.20;29.80;;;;;;;0.06;65.75;99149.36;2208905;81;21317;-79
2021/04/26 00:03:41;;;;;;;64.32;29.32;;;;;;;0.03;65.82;99147.00;2208223;80;21137;-79
2021/04/26 00:06:42;;;;;;;156.22;66.05;;;;;;;0.02;65.81;99141.48;2202688;80;21594;-78
2021/04/26 00:09:44;;;;;;;185.95;70.10;;;;;;;-0.01;65.91;99139.45;2206424;80;21161;-79
2021/04/26 00:12:47;;;;;;;150.55;52.83;;;;;;;-0.01;66.12;99141.21;2200988;80;21721;-78
2021/04/26 00:15:49;;;;;;;77.92;30.82;;;;;;;-0.01;66.10;99143.32;2200258;80;21281;-78
2021/04/26 00:18:50;;;;;;;51.65;21.70;;;;;;;0.04;66.16;99143.03;2199717;81;21304;-79
2021/04/26 00:28:00;;;;;;;30.40;14.50;;;;;;;0.18;66.09;99154.53;2253651;78;21234;-80
2021/04/26 00:31:03;;;;;;;23.87;13.93;;;;;;;0.25;66.12;99158.31;2253759;78;21571;-79
2021/04/26 00:34:05;;;;;;;24.92;12.95;;;;;;;0.34;66.12;99158.16;2253589;79;21698;-79
2021/04/26 00:37:07;;;;;;;25.23;13.40;;;;;;;0.42;66.17;99155.89;2253834;78;21158;-79
2021/04/26 00:40:09;;;;;;;29.40;14.18;;;;;;;0.41;66.29;99146.98;2253383;79;21196;-79
2021/04/26 00:43:11;;;;;;;27.05;13.68;;;;;;;0.46;66.34;99144.46;2253425;78;21261;-79
2021/04/26 00:46:15;;;;;;;27.62;13.60;;;;;;;0.53;66.37;99141.80;2253886;78;21270;-80
2021/04/26 00:49:16;;;;;;;26.65;13.90;;;;;;;0.59;66.30;99144.89;2238749;78;21163;-79
2021/04/26 00:52:18;;;;;;;23.18;12.15;;;;;;;0.69;66.23;99151.88;2251193;79;21131;-79
2021/04/26 00:55:20;;;;;;;28.60;13.05;;;;;;;0.77;66.18;99152.64;2253403;78;21297;-78
2021/04/26 00:58:22;;;;;;;21.23;11.40;;;;;;;0.83;66.30;99145.78;2253138;78;21276;-79
2021/04/26 01:01:24;;;;;;;21.05;11.78;;;;;;;0.84;66.21;99153.40;2251198;79;21277;-80
2021/04/26 01:04:26;;;;;;;20.68;11.97;;;;;;;0.85;66.06;99147.77;2243991;79;21281;-79
2021/04/26 01:07:28;;;;;;;19.07;11.45;;;;;;;0.88;65.97;99139.81;2251473;78;21147;-78
2021/04/26 01:10:31;;;;;;;25.77;12.90;;;;;;;0.92;66.02;99136.58;2253665;79;21267;-79
2021/04/26 01:13:33;;;;;;;32.58;14.60;;;;;;;0.94;66.04;99134.70;2253604;78;21269;-78
2021/04/26 01:16:35;;;;;;;25.23;14.20;;;;;;;0.97;65.81;99131.90;2248897;78;21150;-79
2021/04/26 01:19:37;;;;;;;35.35;15.60;;;;;;;0.95;65.97;99126.86;2213697;80;21333;-80
2021/04/26 01:22:39;;;;;;;28.38;14.33;;;;;;;0.96;65.82;99127.21;2221300;80;21349;-78
2021/04/26 01:25:41;;;;;;;27.73;13.58;;;;;;;0.97;65.92;99133.19;2223947;80;21170;-78
2021/04/26 01:28:43;;;;;;;33.28;13.88;;;;;;;1.02;65.91;99134.98;2223656;80;21179;-77
2021/04/26 01:31:45;;;;;;;24.82;12.85;;;;;;;1.06;65.95;99125.62;2223556;80;21159;-77
2021/04/26 01:34:47;;;;;;;28.40;13.18;;;;;;;1.08;65.78;99125.03;2223859;80;21448;-77
2021/04/26 01:37:49;;;;;;;18.60;11.00;;;;;;;1.11;65.69;99122.73;2223846;80;21174;-78
2021/04/26 01:40:50;;;;;;;24.50;13.83;;;;;;;1.08;65.67;99122.92;2223995;80;21193;-79
2021/04/26 01:43:52;;;;;;;23.92;12.98;;;;;;;1.08;65.68;99135.35;2224043;80;21119;-79
2021/04/26 01:46:54;;;;;;;36.17;13.93;;;;;;;1.12;65.68;99122.61;2224045;80;21135;-79
2021/04/26 01:49:55;;;;;;;54.35;17.52;;;;;;;1.12;65.71;99118.74;2259924;79;21248;-78
2021/04/26 01:52:57;;;;;;;49.95;15.75;;;;;;;1.11;65.82;99124.84;2264117;79;21281;-79
2021/04/26 01:55:59;;;;;;;36.03;14.30;;;;;;;1.14;65.86;99119.92;2263937;79;21725;-79
2021/04/26 01:59:03;;;;;;;33.30;13.85;;;;;;;1.16;65.76;99116.75;2264206;78;21713;-79
2021/04/26 02:02:05;;;;;;;25.68;12.95;;;;;;;1.19;65.84;99110.55;2263895;78;21309;-79
2021/04/26 02:05:06;;;;;;;28.55;13.03;;;;;;;1.23;65.67;99107.65;2263898;78;21300;-79
2021/04/26 02:08:08;;;;;;;29.87;13.62;;;;;;;1.25;65.62;99101.91;2262999;78;21293;-78
2021/04/26 02:11:10;;;;;;;38.98;14.93;;;;;;;1.23;65.70;99097.33;2264045;78;21159;-79
2021/04/26 02:14:12;;;;;;;30.02;13.68;;;;;;;1.23;65.66;99096.03;2264115;79;21701;-79
2021/04/26 02:17:14;;;;;;;19.37;10.13;;;;;;;1.19;65.56;99101.08;2264481;79;21138;-79
2021/04/26 02:20:16;;;;;;;22.73;12.70;;;;;;;1.17;65.56;99108.55;2263861;78;21166;-79
2021/04/26 02:23:18;;;;;;;27.93;13.28;;;;;;;1.08;65.59;99102.29;2254645;78;21480;-80
2021/04/26 02:26:22;;;;;;;27.20;13.88;;;;;;;1.03;65.65;99095.37;2252698;78;21238;-78
2021/04/26 02:29:24;;;;;;;21.73;11.12;;;;;;;0.93;65.64;99092.63;2253497;79;21734;-78
2021/04/26 02:32:25;;;;;;;26.15;12.78;;;;;;;0.83;65.75;99091.64;2253718;79;21137;-79
2021/04/26 02:35:27;;;;;;;28.10;13.20;;;;;;;0.71;65.82;99086.04;2253641;79;21307;-79
2021/04/26 02:38:30;;;;;;;33.05;15.45;;;;;;;0.62;65.89;99091.38;2236089;79;21159;-78
2021/04/26 02:41:31;;;;;;;26.62;14.93;;;;;;;0.56;66.13;99084.09;2215953;79;21106;-79
2021/04/26 02:44:33;;;;;;;28.77;12.70;;;;;;;0.48;66.23;99088.48;2213783;80;21170;-78
2021/04/26 02:47:35;;;;;;;24.30;13.15;;;;;;;0.40;66.18;99080.92;2214006;80;21321;-78
2021/04/26 02:50:36;;;;;;;21.97;11.70;;;;;;;0.33;66.36;99079.70;2220897;79;21285;-79
2021/04/26 02:53:38;;;;;;;21.45;11.65;;;;;;;0.24;66.53;99079.87;2253747;79;21305;-79
2021/04/26 02:56:40;;;;;;;23.47;11.80;;;;;;;0.12;66.58;99087.16;2253422;79;21806;-79
2021/04/26 02:59:42;;;;;;;26.30;12.98;;;;;;;0.05;66.82;99088.03;2253814;79;21269;-79
2021/04/26 03:02:44;;;;;;;26.57;12.95;;;;;;;-0.03;66.81;99091.11;2253504;78;21262;-79
2021/04/26 03:05:46;;;;;;;24.30;13.68;;;;;;;-0.11;67.05;99089.52;2253715;79;21274;-79
2021/04/26 03:08:47;;;;;;;25.85;13.18;;;;;;;-0.15;67.19;99084.22;2253818;78;21111;-79
2021/04/26 03:11:50;;;;;;;24.12;12.88;;;;;;;-0.17;67.22;99078.83;2253464;78;21160;-78
2021/04/26 03:14:52;;;;;;;21.30;11.40;;;;;;;-0.21;67.30;99082.05;2253780;78;21230;-79
2021/04/26 03:17:54;;;;;;;35.58;14.13;;;;;;;-0.24;67.47;99081.45;2233192;78;21159;-79
2021/04/26 03:20:56;;;;;;;24.00;12.73;;;;;;;-0.29;67.40;99081.27;2213983;80;22192;-79
2021/04/26 03:23:57;;;;;;;25.68;12.23;;;;;;;-0.29;67.76;99077.88;2223725;80;21288;-79
2021/04/26 03:26:59;;;;;;;26.15;13.43;;;;;;;-0.35;67.63;99071.87;2223692;80;21147;-79
2021/04/26 03:30:01;;;;;;;29.65;12.80;;;;;;;-0.37;67.98;99078.37;2200838;79;21280;-79
2021/04/26 03:33:03;;;;;;;27.30;14.50;;;;;;;-0.43;67.77;99086.52;2200342;79;21281;-79
2021/04/26 03:36:05;;;;;;;28.67;13.58;;;;;;;-0.43;67.85;99083.95;2199804;80;21312;-79
2021/04/26 03:39:07;;;;;;;26.95;14.07;;;;;;;-0.42;67.97;99083.02;2199870;81;21769;-78
2021/04/26 03:42:09;;;;;;;19.90;12.93;;;;;;;-0.36;68.03;99090.81;2212372;79;21146;-79
2021/04/26 03:45:10;;;;;;;26.68;14.35;;;;;;;-0.19;68.05;99085.80;2251339;79;21140;-78
2021/04/26 03:48:12;;;;;;;33.60;16.52;;;;;;;-0.12;67.63;99086.58;2263528;79;21182;-78
2021/04/26 03:51:14;;;;;;;33.20;16.52;;;;;;;-0.07;67.59;99084.54;2263400;78;21131;-79
2021/04/26 03:54:16;;;;;;;45.17;17.98;;;;;;;0.11;67.79;99091.95;2263732;78;21276;-80
2021/04/26 03:57:18;;;;;;;30.80;15.53;;;;;;;0.37;67.38;99089.70;2263509;78;21139;-79
2021/04/26 04:00:20;;;;;;;31.33;17.05;;;;;;;0.69;67.06;99095.64;2263330;78;21674;-79
2021/04/26 04:03:23;;;;;;;32.10;17.65;;;;;;;1.21;66.57;99090.17;2263609;78;21167;-79
2021/04/26 04:06:24;;;;;;;29.85;17.77;;;;;;;1.80;65.60;99093.97;2263721;79;21170;-79
2021/04/26 04:09:26;;;;;;;30.32;15.90;;;;;;;2.39;64.65;99094.26;2263491;78;21138;-79
2021/04/26 04:12:28;;;;;;;25.77;15.35;;;;;;;2.97;63.81;99090.50;2263508;78;21574;-80
2021/04/26 04:15:30;;;;;;;31.12;17.02;;;;;;;3.57;62.45;99089.57;2263499;79;21242;-79
2021/04/26 04:18:32;;;;;;;25.55;15.78;;;;;;;4.18;61.89;99094.81;2232858;78;21336;-78
2021/04/26 04:21:34;;;;;;;23.42;14.35;;;;;;;4.79;60.50;99092.97;2210737;79;21620;-79
2021/04/26 04:24:37;;;;;;;19.75;13.28;;;;;;;5.34;59.58;99093.78;2263272;78;21136;-79
2021/04/26 04:27:39;;;;;;;22.10;12.65;;;;;;;5.83;58.53;99103.16;2263469;79;21621;-79
2021/04/26 04:30:40;;;;;;;23.55;13.78;;;;;;;6.30;57.89;99108.39;2263427;78;21158;-78
2021/04/26 04:33:42;;;;;;;23.85;14.38;;;;;;;6.65;56.45;99105.09;2263326;78;21181;-79
2021/04/26 04:36:45;;;;;;;19.57;12.35;;;;;;;6.93;56.46;99108.97;2263712;78;21142;-80
2021/04/26 04:39:47;;;;;;;17.50;11.88;;;;;;;7.04;52.93;99107.00;2263394;78;21629;-79
2021/04/26 04:42:49;;;;;;;21.52;12.73;;;;;;;6.86;53.73;99112.67;2263588;78;21163;-80
2021/04/26 04:45:51;;;;;;;23.32;12.03;;;;;;;6.65;53.72;99116.80;2263929;79;21313;-80
2021/04/26 04:48:52;;;;;;;22.07;12.20;;;;;;;6.51;54.05;99113.39;2249081;78;21284;-80
2021/04/26 04:51:54;;;;;;;19.85;11.20;;;;;;;6.42;51.86;99120.27;2200105;80;21199;-78
2021/04/26 04:54:56;;;;;;;18.42;11.80;;;;;;;6.41;52.94;99116.52;2249460;79;21682;-78
2021/04/26 04:57:58;;;;;;;18.92;10.60;;;;;;;6.29;51.61;99121.06;2263420;79;21166;-79
2021/04/26 05:01:00;;;;;;;20.62;11.85;;;;;;;6.13;51.85;99117.77;2263356;78;21166;-82
2021/04/26 05:04:02;;;;;;;21.07;11.25;;;;;;;5.98;50.76;99125.67;2263497;78;21574;-82
2021/04/26 05:07:04;;;;;;;19.25;10.85;;;;;;;5.88;52.26;99120.46;2262572;78;21131;-80
2021/04/26 05:10:06;;;;;;;23.38;11.30;;;;;;;5.76;51.38;99129.83;2263613;79;21292;-80
2021/04/26 05:13:08;;;;;;;21.52;11.55;;;;;;;5.76;51.59;99127.23;2223280;80;21346;-80
2021/04/26 05:16:10;;;;;;;15.90;9.63;;;;;;;5.65;51.71;99129.50;2223334;80;21312;-81
2021/04/26 05:19:12;;;;;;;19.85;11.05;;;;;;;5.55;51.04;99125.61;2223447;80;21736;-80
2021/04/26 05:22:14;;;;;;;18.95;11.43;;;;;;;5.49;51.55;99137.05;2223365;80;21468;-80
2021/04/26 05:25:16;;;;;;;21.10;11.03;;;;;;;5.38;50.94;99129.70;2223534;80;21500;-80
2021/04/26 05:28:18;;;;;;;21.50;10.43;;;;;;;5.32;51.58;99135.95;2223640;80;21111;-81
2021/04/26 05:31:20;;;;;;;15.93;10.50;;;;;;;5.33;51.23;99138.41;2234481;79;21257;-81
2021/04/26 05:34:22;;;;;;;17.77;8.98;;;;;;;5.27;51.07;99143.31;2263672;78;21135;-81
2021/04/26 05:37:24;;;;;;;15.32;8.88;;;;;;;5.23;50.95;99142.77;2263567;79;21131;-80
2021/04/26 05:40:25;;;;;;;16.70;9.05;;;;;;;5.26;51.57;99144.27;2263552;78;21618;-83
2021/04/26 05:43:27;;;;;;;16.35;10.35;;;;;;;5.27;51.00;99140.71;2263385;79;21248;-80
2021/04/26 05:46:30;;;;;;;16.57;9.70;;;;;;;5.35;51.23;99142.16;2263338;78;21159;-84
2021/04/26 05:49:31;;;;;;;14.68;9.20;;;;;;;5.44;51.41;99140.05;2263237;78;21143;-83
2021/04/26 05:52:33;;;;;;;18.37;11.05;;;;;;;5.54;51.04;99143.94;2261011;78;21578;-81
2021/04/26 05:55:37;;;;;;;19.57;11.40;;;;;;;5.56;51.57;99145.44;2260920;79;21167;-83
2021/04/26 05:58:39;;;;;;;17.80;11.08;;;;;;;5.71;51.23;99147.97;2261698;79;21112;-83
2021/04/26 06:01:41;;;;;;;18.60;9.85;;;;;;;5.70;51.08;99155.42;2221233;79;21717;-80
2021/04/26 06:04:43;;;;;;;13.83;8.90;;;;;;;5.71;51.13;99160.14;2260398;79;21123;-80
2021/04/26 06:07:48;;;;;;;16.87;9.60;;;;;;;5.71;51.06;99159.66;2261300;79;21293;-80
2021/04/26 06:10:50;;;;;;;17.87;8.23;;;;;;;5.78;51.33;99164.31;2263602;78;21099;-81
2021/04/26 06:13:53;;;;;;;17.82;10.88;;;;;;;5.73;50.47;99158.70;2242154;78;21691;-80
2021/04/26 06:16:55;;;;;;;17.27;10.25;;;;;;;5.74;51.32;99162.94;2221687;79;21297;-80
2021/04/26 06:19:57;;;;;;;19.52;9.98;;;;;;;5.88;51.43;99162.53;2242321;79;21151;-80
2021/04/26 06:22:59;;;;;;;17.37;9.35;;;;;;;6.00;51.36;99162.73;2263201;78;21151;-80
2021/04/26 06:26:01;;;;;;;18.67;9.30;;;;;;;5.96;50.82;99165.29;2248108;78;21287;-81
2021/04/26 06:29:03;;;;;;;18.80;11.00;;;;;;;6.09;51.18;99167.58;2241465;79;21257;-81
2021/04/26 06:32:05;;;;;;;11.83;7.78;;;;;;;6.18;50.83;99166.73;2241442;78;21271;-79
2021/04/26 06:35:07;;;;;;;14.20;9.15;;;;;;;6.08;49.62;99168.55;2224282;79;21135;-81
2021/04/26 06:38:09;;;;;;;11.33;7.30;;;;;;;5.95;50.53;99167.55;2263812;78;21752;-81
2021/04/26 06:41:11;;;;;;;11.75;7.37;;;;;;;5.85;50.35;99157.14;2259978;78;21127;-80
2021/04/26 06:44:12;;;;;;;9.55;6.05;;;;;;;5.85;50.45;99155.83;2263634;78;21191;-81
2021/04/26 06:47:14;;;;;;;8.88;5.83;;;;;;;5.76;49.28;99163.16;2230372;79;21669;-82
2021/04/26 06:50:17;;;;;;;7.08;5.47;;;;;;;5.63;48.79;99156.92;2243267;79;21432;-81
2021/04/26 06:53:19;;;;;;;10.32;5.65;;;;;;;5.61;48.77;99164.05;2247003;79;21114;-81
2021/04/26 06:56:21;;;;;;;11.08;5.53;;;;;;;5.53;49.25;99153.52;2243183;79;21147;-80
2021/04/26 06:59:22;;;;;;;5.70;4.03;;;;;;;5.59;49.75;99161.25;2226688;80;21301;-80
2021/04/26 07:02:24;;;;;;;10.32;4.62;;;;;;;5.61;48.90;99165.82;2251281;79;21151;-81
2021/04/26 07:05:26;;;;;;;8.38;4.35;;;;;;;5.57;48.41;99156.64;2249954;79;21297;-81
2021/04/26 07:08:28;;;;;;;10.20;5.45;;;;;;;5.60;47.44;99160.29;2239528;79;21134;-82
2021/04/26 07:11:29;;;;;;;6.78;4.25;;;;;;;5.60;48.55;99160.29;2226456;80;21122;-81
2021/04/26 07:14:31;;;;;;;7.85;4.65;;;;;;;5.65;47.53;99147.21;2242953;79;21100;-82
2021/04/26 07:17:34;;;;;;;4.90;3.33;;;;;;;5.73;47.52;99147.83;2246605;79;21147;-79
2021/04/26 07:20:36;;;;;;;4.90;3.35;;;;;;;5.63;46.20;99145.23;2223763;80;21273;-80
2021/04/26 07:23:38;;;;;;;5.28;3.70;;;;;;;5.66;46.20;99149.33;2239331;79;21261;-82
2021/04/26 07:26:39;;;;;;;4.08;2.67;;;;;;;5.51;45.90;99150.23;2238551;79;21103;-81
2021/04/26 07:29:41;;;;;;;5.10;3.12;;;;;;;5.44;44.96;99159.52;2250699;79;21261;-81
2021/04/26 07:32:44;;;;;;;2.62;2.12;;;;;;;5.57;46.33;99150.97;2246749;79;21099;-81
2021/04/26 07:35:46;;;;;;;4.12;2.90;;;;;;;5.68;45.40;99146.14;2162550;82;21153;-80
2021/04/26 07:38:48;;;;;;;4.53;2.70;;;;;;;5.71;43.88;99149.27;2186663;81;21084;-85
2021/04/26 07:41:49;;;;;;;3.92;2.17;;;;;;;5.80;43.82;99139.00;2149955;82;21263;-78
2021/04/26 07:44:51;;;;;;;3.30;2.58;;;;;;;5.93;43.87;99143.45;2168450;82;21156;-79
2021/04/26 07:47:55;;;;;;;3.98;2.52;;;;;;;6.13;43.82;99154.66;2191744;81;21174;-78
2021/04/26 07:50:56;;;;;;;4.28;2.45;;;;;;;6.34;44.12;99139.67;2208478;81;21301;-78
2021/04/26 07:53:58;;;;;;;1.98;1.87;;;;;;;6.38;42.95;99142.31;2208423;81;21583;-79
2021/04/26 07:57:00;;;;;;;5.05;2.42;;;;;;;6.39;41.60;99143.12;2186006;81;21326;-77
2021/04/26 08:00:03;;;;;;;3.27;2.90;;;;;;;6.69;42.89;99146.79;2208218;80;21155;-77
2021/04/26 08:03:04;;;;;;;2.52;2.10;;;;;;;6.85;42.65;99147.45;2208370;80;21225;-79
2021/04/26 08:06:06;;;;;;;2.75;2.47;;;;;;;6.95;42.40;99140.43;2208489;81;21171;-78
2021/04/26 08:09:08;;;;;;;5.90;3.10;;;;;;;6.91;41.04;99148.17;2260136;79;21182;-79
2021/04/26 08:12:10;;;;;;;4.78;2.55;;;;;;;6.65;41.75;99144.61;2259440;79;21112;-81
2021/04/26 08:15:11;;;;;;;5.28;3.33;;;;;;;6.50;40.92;99139.89;2259780;79;21733;-82
2021/04/26 08:18:13;;;;;;;7.92;4.45;;;;;;;6.38;40.90;99133.20;2259689;79;21564;-80
2021/04/26 08:21:14;;;;;;;3.65;2.70;;;;;;;6.56;42.10;99134.09;2259601;79;21310;-83
2021/04/26 08:24:16;;;;;;;3.30;2.62;;;;;;;6.70;40.58;99128.91;2232981;77;21126;-86
2021/04/26 08:27:18;;;;;;;4.35;3.33;;;;;;;6.77;40.83;99127.86;2221109;80;21264;-85
2021/04/26 08:30:19;;;;;;;6.08;2.37;;;;;;;7.01;38.65;99127.29;2222049;80;21260;-80
2021/04/26 08:33:21;;;;;;;3.58;3.00;;;;;;;7.23;38.42;99120.38;2224569;80;21278;-82
2021/04/26 08:36:23;;;;;;;4.83;3.08;;;;;;;7.33;37.54;99130.72;2226130;80;21149;-82
2021/04/26 08:39:24;;;;;;;4.67;2.85;;;;;;;7.35;38.06;99127.48;2222632;80;21303;-78
2021/04/26 08:42:26;;;;;;;2.65;2.20;;;;;;;7.48;38.67;99130.52;2220185;80;21252;-84
2021/04/26 08:45:28;;;;;;;3.42;1.42;;;;;;;7.34;36.71;99136.27;2219829;80;21848;-78
2021/04/26 08:48:30;;;;;;;3.42;1.30;;;;;;;7.20;37.13;99140.67;2221036;80;21623;-82
2021/04/26 08:51:31;;;;;;;2.60;1.17;;;;;;;6.96;36.56;99136.86;2224813;80;21113;-80
2021/04/26 08:54:33;;;;;;;3.10;1.35;;;;;;;6.84;35.97;99141.91;2226031;79;21322;-82
2021/04/26 08:57:34;;;;;;;3.70;2.25;;;;;;;6.82;36.74;99122.53;2216092;80;21283;-78
2021/04/26 09:00:36;;;;;;;2.62;1.92;;;;;;;6.81;37.09;99122.20;2211377;80;21304;-80
2021/04/26 09:03:37;;;;;;;3.35;1.70;;;;;;;6.88;37.31;99123.75;2210674;80;21112;-84
2021/04/26 09:06:39;;;;;;;2.70;1.45;;;;;;;7.24;37.08;99116.80;2211179;80;21271;-80
2021/04/26 09:09:40;;;;;;;1.72;1.60;;;;;;;7.37;36.21;99117.23;2214213;80;21142;-81
2021/04/26 09:12:42;;;;;;;1.80;1.70;;;;;;;7.39;36.66;99127.50;2220899;80;21117;-82
2021/04/26 09:15:44;;;;;;;3.20;1.82;;;;;;;7.47;36.11;99131.48;2222178;80;21260;-81
2021/04/26 09:18:46;;;;;;;5.95;3.35;;;;;;;7.38;34.97;99144.10;2217014;80;21234;-83
2021/04/26 09:21:48;;;;;;;4.28;2.45;;;;;;;7.29;35.64;99140.59;2223119;80;21284;-81
2021/04/26 09:24:50;;;;;;;5.60;2.17;;;;;;;7.29;36.69;99124.97;2226227;78;21263;-82
2021/04/26 09:27:52;;;;;;;3.55;2.70;;;;;;;7.54;36.83;99128.62;2222371;79;21244;-82
2021/04/26 09:30:56;;;;;;;2.60;2.20;;;;;;;7.71;35.20;99121.76;2219544;80;21226;-81
2021/04/26 09:34:00;;;;;;;6.35;3.45;;;;;;;7.67;35.11;99123.02;2219842;80;21268;-82
2021/04/26 09:37:02;;;;;;;3.25;1.82;;;;;;;7.62;35.36;99130.48;2216239;80;21275;-83
2021/04/26 09:40:07;;;;;;;1.90;1.75;;;;;;;7.46;35.27;99136.84;2224340;80;21576;-79
2021/04/26 09:43:08;;;;;;;2.60;2.35;;;;;;;7.31;35.57;99147.77;2225911;79;21275;-80
2021/04/26 09:46:10;;;;;;;1.98;1.80;;;;;;;7.32;35.29;99140.33;2223232;80;21158;-81
2021/04/26 09:49:12;;;;;;;5.95;3.95;;;;;;;7.38;34.89;99134.50;2223339;80;21692;-82
2021/04/26 09:52:13;;;;;;;4.17;2.72;;;;;;;7.50;35.30;99136.42;2223136;80;21276;-81
2021/04/26 09:55:15;;;;;;;5.35;2.15;;;;;;;7.67;34.96;99139.47;2224051;80;21100;-82
2021/04/26 09:58:18;;;;;;;4.80;2.72;;;;;;;7.82;35.05;99131.94;2226289;79;21279;-88
2021/04/26 10:01:20;;;;;;;3.22;2.37;;;;;;;7.87;35.36;99134.11;2226225;79;21275;-82
2021/04/26 10:04:21;;;;;;;2.50;1.85;;;;;;;7.95;34.45;99133.68;2226442;79;21268;-80
2021/04/26 10:07:23;;;;;;;3.17;2.37;;;;;;;7.94;34.59;99135.93;2226916;79;21540;-84
2021/04/26 10:10:25;;;;;;;10.23;4.62;;;;;;;7.96;34.17;99142.32;2226662;79;21596;-85
2021/04/26 10:13:27;;;;;;;7.42;4.25;;;;;;;7.90;34.66;99130.70;2226385;80;21162;-83
2021/04/26 10:16:29;;;;;;;4.58;2.80;;;;;;;8.02;34.91;99131.75;2224767;80;21639;-84
2021/04/26 10:19:31;;;;;;;8.98;3.67;;;;;;;8.32;34.38;99134.37;2218583;79;21586;-82
2021/04/26 10:22:33;;;;;;;5.62;2.83;;;;;;;8.51;33.51;99127.19;2214399;80;21281;-79
2021/04/26 10:25:35;;;;;;;4.03;2.10;;;;;;;8.70;33.76;99124.82;2211252;78;21725;-82
2021/04/26 10:28:37;;;;;;;3.00;2.20;;;;;;;8.85;33.33;99127.62;2204019;80;21163;-80
2021/04/26 10:31:39;;;;;;;9.93;4.92;;;;;;;8.85;32.50;99130.23;2199750;81;21756;-81
2021/04/26 10:34:41;;;;;;;5.72;3.27;;;;;;;8.71;33.41;99130.37;2199630;81;21288;-81
2021/04/26 10:37:43;;;;;;;3.42;2.33;;;;;;;8.62;33.19;99114.34;2199604;81;21340;-84
2021/04/26 10:40:45;;;;;;;2.35;2.02;;;;;;;8.66;33.27;99118.26;2199450;81;21316;-83
2021/04/26 10:43:46;;;;;;;4.28;2.40;;;;;;;8.59;32.99;99109.41;2195496;81;21292;-88
2021/04/26 10:46:48;;;;;;;2.33;2.10;;;;;;;8.62;33.38;99100.47;2198546;81;21140;-82
2021/04/26 10:49:50;;;;;;;2.35;2.15;;;;;;;8.73;32.19;99104.09;2199379;81;21281;-81
2021/04/26 10:52:53;;;;;;;3.30;2.45;;;;;;;8.61;32.07;99104.06;2199267;81;21302;-81
2021/04/26 10:55:55;;;;;;;4.60;2.08;;;;;;;8.51;32.98;99101.58;2199568;81;21325;-82
2021/04/26 10:58:57;;;;;;;3.42;1.85;;;;;;;8.49;32.92;99101.70;2199971;81;21576;-81
2021/04/26 11:01:59;;;;;;;7.12;3.40;;;;;;;8.59;33.15;99088.53;2199674;81;21309;-80
2021/04/26 11:05:01;;;;;;;4.72;3.60;;;;;;;8.58;32.58;99101.75;2199710;81;21314;-81
2021/04/26 11:08:06;;;;;;;5.67;3.15;;;;;;;8.70;32.88;99097.89;2199437;81;21191;-81
2021/04/26 11:11:11;;;;;;;2.72;1.72;;;;;;;8.93;31.67;99098.92;2199455;80;21774;-82
2021/04/26 11:14:13;;;;;;;1.70;1.60;;;;;;;8.93;30.83;99110.68;2199533;81;21305;-81
2021/04/26 11:17:15;;;;;;;3.35;1.98;;;;;;;8.81;31.61;99093.69;2199527;81;21375;-81
2021/04/26 11:20:18;;;;;;;5.08;2.45;;;;;;;8.89;31.51;99087.18;2199296;81;21354;-81
2021/04/26 11:23:20;;;;;;;6.12;2.58;;;;;;;9.00;30.95;99092.09;2204971;79;21102;-82
2021/04/26 11:26:22;;;;;;;3.65;2.00;;;;;;;9.14;31.52;99082.80;2259359;79;21131;-83
2021/04/26 11:29:23;;;;;;;3.42;1.77;;;;;;;9.51;31.56;99078.44;2259340;79;21289;-83
2021/04/26 11:32:25;;;;;;;3.45;2.37;;;;;;;9.95;31.61;99076.73;2259252;79;21142;-81
2021/04/26 11:35:28;;;;;;;4.65;2.40;;;;;;;10.32;30.85;99075.36;2259399;79;21582;-81
2021/04/26 11:38:31;;;;;;;4.87;2.05;;;;;;;10.43;30.65;99071.91;2245658;79;21702;-82
2021/04/26 11:41:33;;;;;;;2.37;2.12;;;;;;;10.31;29.55;99092.06;2257349;78;21209;-81
2021/04/26 11:44:34;;;;;;;3.33;1.90;;;;;;;9.96;30.32;99070.03;2259823;79;21174;-81
2021/04/26 11:47:36;;;;;;;2.00;1.80;;;;;;;9.79;29.61;99070.25;2226428;79;21885;-81
2021/04/26 11:50:38;;;;;;;3.40;2.40;;;;;;;9.52;30.01;99071.41;2225926;79;21293;-82
2021/04/26 11:53:39;;;;;;;1.65;1.52;;;;;;;9.26;30.83;99063.73;2225743;79;21258;-82
2021/04/26 11:56:41;;;;;;;2.65;1.90;;;;;;;9.17;29.49;99079.06;2225827;79;21154;-81
2021/04/26 11:59:43;;;;;;;3.15;2.00;;;;;;;9.04;30.60;99064.66;2258385;79;21166;-82
2021/04/26 12:02:45;;;;;;;2.65;2.37;;;;;;;8.93;30.23;99068.89;2259236;79;21212;-81
2021/04/26 12:05:46;;;;;;;1.60;1.50;;;;;;;8.77;30.41;99069.66;2253967;79;21154;-80
2021/04/26 12:08:58;;;;;;;4.45;2.70;;;;;;;8.76;30.22;99056.77;2248264;79;21249;-83
2021/04/26 12:12:01;;;;;;;3.42;3.12;;;;;;;8.67;29.68;99071.59;2226643;78;21124;-81
2021/04/26 12:15:04;;;;;;;2.27;2.08;;;;;;;8.57;30.37;99058.35;2230504;79;21253;-81
2021/04/26 12:18:06;;;;;;;4.35;2.25;;;;;;;8.54;30.44;99060.31;2259374;79;21266;-81
2021/04/26 12:21:09;;;;;;;2.27;2.08;;;;;;;8.59;30.26;99054.60;2258901;79;21115;-82
2021/04/26 12:24:13;;;;;;;6.12;2.67;;;;;;;8.81;31.00;99042.77;2225738;78;21611;-82
2021/04/26 12:27:15;;;;;;;4.85;2.33;;;;;;;9.03;30.79;99043.94;2209097;80;21151;-80
2021/04/26 12:30:21;;;;;;;3.02;2.08;;;;;;;9.28;30.84;99025.99;2230745;79;21603;-81
2021/04/26 12:33:23;;;;;;;3.85;1.92;;;;;;;9.54;30.55;99021.09;2242278;79;21288;-81
2021/04/26 12:36:26;;;;;;;4.65;1.98;;;;;;;9.76;29.83;99024.30;2234727;79;21765;-81
2021/04/26 12:39:28;;;;;;;3.75;2.20;;;;;;;9.93;30.26;99017.24;2226639;79;21332;-81
2021/04/26 12:42:29;;;;;;;2.10;1.90;;;;;;;10.12;29.86;99005.57;2246265;79;21266;-81
2021/04/26 12:45:31;;;;;;;4.78;2.62;;;;;;;10.29;29.09;99005.86;2246125;79;21270;-80
2021/04/26 12:48:35;;;;;;;2.50;1.92;;;;;;;10.22;28.25;99004.91;2245997;79;21139;-82
2021/04/26 12:51:37;;;;;;;8.85;6.00;;;;;;;10.01;28.91;99007.25;2232174;79;21317;-80
2021/04/26 12:54:39;;;;;;;3.75;1.72;;;;;;;9.93;29.20;98988.47;2240681;79;21285;-81
2021/04/26 12:57:40;;;;;;;4.53;2.25;;;;;;;9.85;28.84;98993.72;2242772;79;21269;-81
2021/04/26 13:00:42;;;;;;;2.55;1.85;;;;;;;9.93;29.22;98996.31;2227248;79;21110;-81
2021/04/26 13:03:43;;;;;;;3.77;2.27;;;;;;;9.98;29.11;98989.61;2251867;79;21249;-81
2021/04/26 13:06:48;;;;;;;3.62;2.00;;;;;;;10.09;29.28;98984.98;2214563;80;21256;-81
2021/04/26 13:09:48;;;;;;;2.20;2.00;;;;;;;10.03;27.41;98982.55;2245552;79;21686;-81
2021/04/26 13:12:51;;;;;;;8.15;3.42;;;;;;;9.87;28.15;98977.36;2259414;79;21289;-81
2021/04/26 13:15:53;;;;;;;3.55;2.35;;;;;;;9.89;28.06;98975.42;2247375;79;21312;-81
2021/04/26 13:18:54;;;;;;;5.05;2.70;;;;;;;10.01;27.96;98977.98;2211627;80;21145;-81
2021/04/26 13:21:57;;;;;;;4.78;3.83;;;;;;;10.14;27.65;98974.31;2222614;79;21311;-81
2021/04/26 13:24:59;;;;;;;5.65;3.45;;;;;;;10.12;27.94;98968.45;2222906;79;21315;-81
2021/04/26 13:28:00;;;;;;;3.30;1.90;;;;;;;10.11;27.70;98958.97;2223584;79;21188;-80
2021/04/26 13:31:02;;;;;;;4.65;3.08;;;;;;;10.13;26.64;98954.38;2224950;79;21134;-79
2021/04/26 13:34:04;;;;;;;4.47;2.45;;;;;;;10.24;27.60;98950.13;2225300;79;21246;-80
2021/04/26 13:37:05;;;;;;;5.62;2.55;;;;;;;10.38;27.52;98949.87;2234195;78;21270;-79
2021/04/26 13:40:08;;;;;;;6.72;3.22;;;;;;;10.53;27.73;98942.10;2239995;79;21147;-80
2021/04/26 13:43:10;;;;;;;1.85;1.75;;;;;;;10.60;27.29;98944.33;2250720;79;21099;-81
2021/04/26 13:46:13;;;;;;;1.67;1.57;;;;;;;10.60;25.98;98949.56;2256340;79;21115;-81
2021/04/26 13:49:15;;;;;;;1.55;1.45;;;;;;;10.34;26.41;98940.75;2228377;80;21221;-80
2021/04/26 13:52:18;;;;;;;2.02;1.50;;;;;;;10.13;27.42;98937.37;2220345;80;21256;-80
2021/04/26 13:55:20;;;;;;;2.37;2.20;;;;;;;10.04;27.26;98942.31;2220438;79;21126;-82
2021/04/26 13:58:27;;;;;;;3.17;1.70;;;;;;;9.85;26.63;98933.56;2246786;79;21128;-79
2021/04/26 14:01:34;;;;;;;4.67;1.55;;;;;;;9.59;26.82;98930.70;2142979;82;21111;-80
2021/04/26 14:04:35;;;;;;;2.58;2.37;;;;;;;9.29;26.85;98933.55;2192792;81;21266;-82
2021/04/26 14:07:37;;;;;;;4.50;2.45;;;;;;;9.00;27.01;98930.16;2202538;80;21296;-80
2021/04/26 14:10:39;;;;;;;3.10;2.55;;;;;;;8.90;27.40;98925.59;2223753;80;21282;-80
2021/04/26 14:13:41;;;;;;;3.33;1.77;;;;;;;8.85;27.71;98920.03;2224723;79;21138;-78
2021/04/26 14:16:43;;;;;;;2.58;1.62;;;;;;;8.80;27.48;98915.31;2170596;82;21286;-78
2021/04/26 14:19:44;;;;;;;2.10;1.80;;;;;;;8.78;27.92;98917.28;2175216;82;21179;-79
2021/04/26 14:22:47;;;;;;;4.03;2.35;;;;;;;8.79;27.72;98915.48;2173072;82;21111;-79